createdAt,value
2017-09-09T00:00:16.413Z,14.1
2017-09-09T00:01:18.800Z,14.1
2017-09-09T00:02:21.192Z,14.1
2017-09-09T00:03:23.589Z,14.1
2017-09-09T00:04:25.979Z,14.1
2017-09-09T00:05:28.377Z,14.1
2017-09-09T00:06:30.769Z,14.1
2017-09-09T00:07:33.172Z,14.1
2017-09-09T00:08:35.565Z,14.1
2017-09-09T00:09:37.956Z,14.1
2017-09-09T00:10:40.346Z,14.1
2017-09-09T00:11:42.746Z,14.1
2017-09-09T00:12:45.477Z,14.1
2017-09-09T00:13:47.869Z,14.1
2017-09-09T00:14:50.257Z,14.1
2017-09-09T00:15:52.658Z,14.1
2017-09-09T00:16:55.057Z,14.1
2017-09-09T00:17:57.454Z,14.1
2017-09-09T00:18:59.853Z,14.1
2017-09-09T00:20:02.593Z,14.1
2017-09-09T00:21:04.993Z,14.1
2017-09-09T00:22:07.381Z,14.1
2017-09-09T00:23:09.776Z,14.1
2017-09-09T00:24:12.505Z,14.1
2017-09-09T00:25:14.894Z,14.1
2017-09-09T00:26:17.302Z,14.1
2017-09-09T00:27:19.692Z,14.1
2017-09-09T00:28:22.081Z,14.1
2017-09-09T00:29:24.817Z,14.1
2017-09-09T00:30:27.221Z,14.1
2017-09-09T00:31:29.620Z,14.1
2017-09-09T00:32:32.017Z,14.1
2017-09-09T00:33:34.401Z,14.1
2017-09-09T00:34:36.799Z,14.1
2017-09-09T00:35:39.205Z,14.1
2017-09-09T00:36:41.616Z,14.1
2017-09-09T00:37:43.998Z,14.1
2017-09-09T00:38:46.397Z,14.1
2017-09-09T00:39:48.787Z,14.1
2017-09-09T00:40:51.172Z,14.1
2017-09-09T00:41:53.575Z,14.1
2017-09-09T00:42:56.303Z,14.1
2017-09-09T00:43:58.696Z,14.1
2017-09-09T00:45:01.086Z,14.1
2017-09-09T00:46:03.481Z,14.1
2017-09-09T00:47:05.876Z,14.1
2017-09-09T00:48:08.281Z,14.1
2017-09-09T00:49:10.664Z,14.1
2017-09-09T00:50:13.417Z,14.1
2017-09-09T00:51:15.801Z,14.1
2017-09-09T00:52:18.540Z,14.1
2017-09-09T00:53:20.932Z,14.1
2017-09-09T00:54:23.328Z,14.1
2017-09-09T00:55:25.726Z,14.1
2017-09-09T00:56:28.508Z,14.1
2017-09-09T00:57:30.869Z,14.1
2017-09-09T00:58:33.264Z,14.1
2017-09-09T00:59:35.654Z,14.1
2017-09-09T01:00:38.065Z,14.1
2017-09-09T01:01:40.449Z,14.1
2017-09-09T01:02:42.844Z,14.1
2017-09-09T01:03:45.581Z,14
2017-09-09T01:04:47.968Z,14
2017-09-09T01:05:50.359Z,14
2017-09-09T01:06:52.754Z,14
2017-09-09T01:07:55.142Z,14
2017-09-09T01:08:57.539Z,14
2017-09-09T01:09:59.933Z,14
2017-09-09T01:11:02.328Z,14
2017-09-09T01:12:05.073Z,14
2017-09-09T01:13:07.464Z,14
2017-09-09T01:14:09.847Z,14
2017-09-09T01:15:12.284Z,14
2017-09-09T01:16:14.643Z,14
2017-09-09T01:17:17.043Z,14
2017-09-09T01:18:19.437Z,14
2017-09-09T01:19:21.832Z,14
2017-09-09T01:20:24.561Z,14
2017-09-09T01:21:27.297Z,14
2017-09-09T01:22:29.682Z,14
2017-09-09T01:23:32.422Z,14
2017-09-09T01:24:34.823Z,14
2017-09-09T01:25:37.213Z,14
2017-09-09T01:26:39.609Z,14
2017-09-09T01:27:42.011Z,14
2017-09-09T01:28:44.404Z,14
2017-09-09T01:29:46.802Z,14
2017-09-09T01:30:49.192Z,14
2017-09-09T01:31:51.587Z,14
2017-09-09T01:32:53.977Z,14
2017-09-09T01:33:56.372Z,14
2017-09-09T01:34:59.109Z,14
2017-09-09T01:36:01.501Z,14
2017-09-09T01:37:03.894Z,14
2017-09-09T01:38:06.297Z,14
2017-09-09T01:39:08.688Z,14.1
2017-09-09T01:40:11.080Z,14
2017-09-09T01:41:13.484Z,14.1
2017-09-09T01:42:15.875Z,14
2017-09-09T01:43:18.269Z,14
2017-09-09T01:44:20.663Z,14
2017-09-09T01:45:23.043Z,14
2017-09-09T01:46:25.442Z,14
2017-09-09T01:47:27.837Z,14
2017-09-09T01:48:30.223Z,14
2017-09-09T01:49:32.630Z,14.1
2017-09-09T01:50:35.022Z,14.1
2017-09-09T01:51:37.414Z,14.1
2017-09-09T01:52:39.805Z,14.1
2017-09-09T01:53:42.205Z,14.1
2017-09-09T01:54:44.607Z,14.1
2017-09-09T01:55:47.006Z,14.1
2017-09-09T01:56:49.421Z,14.1
2017-09-09T01:57:51.786Z,14.1
2017-09-09T01:58:54.187Z,14.1
2017-09-09T01:59:56.571Z,14.1
2017-09-09T02:00:58.963Z,14.1
2017-09-09T02:02:01.363Z,14.1
2017-09-09T02:03:03.747Z,14.1
2017-09-09T02:04:06.154Z,14.1
2017-09-09T02:05:08.540Z,14.1
2017-09-09T02:06:10.938Z,14.1
2017-09-09T02:07:13.333Z,14.1
2017-09-09T02:08:15.728Z,14.1
2017-09-09T02:09:18.122Z,14.1
2017-09-09T02:10:20.519Z,14.1
2017-09-09T02:11:22.904Z,14.1
2017-09-09T02:12:25.305Z,14.1
2017-09-09T02:13:27.697Z,14.1
2017-09-09T02:14:30.088Z,14.1
2017-09-09T02:15:32.480Z,14.1
2017-09-09T02:16:34.871Z,14.1
2017-09-09T02:17:37.262Z,14.1
2017-09-09T02:18:39.664Z,14.1
2017-09-09T02:19:42.061Z,14.1
2017-09-09T02:20:44.798Z,14.1
2017-09-09T02:21:47.533Z,14.1
2017-09-09T02:22:49.936Z,14.1
2017-09-09T02:23:52.330Z,14.1
2017-09-09T02:24:54.723Z,14.1
2017-09-09T02:25:57.112Z,14.1
2017-09-09T02:26:59.502Z,14.1
2017-09-09T02:28:02.241Z,14.1
2017-09-09T02:29:04.639Z,14.1
2017-09-09T02:30:07.054Z,14.1
2017-09-09T02:31:09.423Z,14.1
2017-09-09T02:32:11.824Z,14.2
2017-09-09T02:33:14.213Z,14.2
2017-09-09T02:34:16.602Z,14.1
2017-09-09T02:35:19.000Z,14.2
2017-09-09T02:36:21.392Z,14.2
2017-09-09T02:37:23.774Z,14.1
2017-09-09T02:38:26.172Z,14.2
2017-09-09T02:39:28.564Z,14.1
2017-09-09T02:40:30.960Z,14.2
2017-09-09T02:41:33.359Z,14.1
2017-09-09T02:42:35.751Z,14.1
2017-09-09T02:43:38.141Z,14.1
2017-09-09T02:44:40.544Z,14.1
2017-09-09T02:45:42.936Z,14.1
2017-09-09T02:46:45.326Z,14.1
2017-09-09T02:47:47.723Z,14.1
2017-09-09T02:48:50.122Z,14.1
2017-09-09T02:49:52.517Z,14.1
2017-09-09T02:50:54.918Z,14.1
2017-09-09T02:51:57.312Z,14.2
2017-09-09T02:52:59.705Z,14.2
2017-09-09T02:54:02.107Z,14.2
2017-09-09T02:55:04.496Z,14.2
2017-09-09T02:56:06.896Z,14.2
2017-09-09T02:57:09.292Z,14.2
2017-09-09T02:58:11.681Z,14.2
2017-09-09T02:59:14.073Z,14.2
2017-09-09T03:00:16.473Z,14.2
2017-09-09T03:01:18.865Z,14.2
2017-09-09T03:02:21.609Z,14.2
2017-09-09T03:03:24.018Z,14.2
2017-09-09T03:04:26.410Z,14.2
2017-09-09T03:05:28.803Z,14.2
2017-09-09T03:06:31.192Z,14.2
2017-09-09T03:07:33.591Z,14.2
2017-09-09T03:08:35.980Z,14.3
2017-09-09T03:09:38.382Z,14.3
2017-09-09T03:10:40.772Z,14.3
2017-09-09T03:11:43.167Z,14.3
2017-09-09T03:12:45.566Z,14.3
2017-09-09T03:13:47.963Z,14.3
2017-09-09T03:14:50.345Z,14.3
2017-09-09T03:15:52.739Z,14.3
2017-09-09T03:16:55.137Z,14.3
2017-09-09T03:17:57.538Z,14.3
2017-09-09T03:18:59.937Z,14.3
2017-09-09T03:20:02.323Z,14.3
2017-09-09T03:21:05.075Z,14.3
2017-09-09T03:22:07.481Z,14.3
2017-09-09T03:23:09.879Z,14.3
2017-09-09T03:24:12.270Z,14.3
2017-09-09T03:25:15.005Z,14.3
2017-09-09T03:26:17.395Z,14.3
2017-09-09T03:27:19.798Z,14.3
2017-09-09T03:28:22.194Z,14.3
2017-09-09T03:29:24.574Z,14.3
2017-09-09T03:30:26.992Z,14.3
2017-09-09T03:31:29.368Z,14.3
2017-09-09T03:32:31.761Z,14.3
2017-09-09T03:33:34.512Z,14.3
2017-09-09T03:34:36.921Z,14.2
2017-09-09T03:35:39.310Z,14.3
2017-09-09T03:36:41.706Z,14.3
2017-09-09T03:37:44.097Z,14.2
2017-09-09T03:38:46.487Z,14.2
2017-09-09T03:39:48.884Z,14.2
2017-09-09T03:40:51.279Z,14.2
2017-09-09T03:41:53.669Z,14.2
2017-09-09T03:42:56.075Z,14.2
2017-09-09T03:43:58.469Z,14.2
2017-09-09T03:45:00.871Z,14.2
2017-09-09T03:46:03.267Z,14.2
2017-09-09T03:47:05.665Z,14.2
2017-09-09T03:48:08.061Z,14.1
2017-09-09T03:49:10.455Z,14.1
2017-09-09T03:50:12.845Z,14.1
2017-09-09T03:51:15.235Z,14.1
2017-09-09T03:52:17.625Z,14.1
2017-09-09T03:53:20.378Z,14.1
2017-09-09T03:54:23.104Z,14.1
2017-09-09T03:55:25.499Z,14.1
2017-09-09T03:56:27.893Z,14.1
2017-09-09T03:57:30.287Z,14.1
2017-09-09T03:58:32.675Z,14.1
2017-09-09T03:59:35.073Z,14.1
2017-09-09T04:00:37.464Z,14.1
2017-09-09T04:01:39.856Z,14.1
2017-09-09T04:02:42.602Z,14.1
2017-09-09T04:03:44.993Z,14.1
2017-09-09T04:04:47.386Z,14.1
2017-09-09T04:05:49.776Z,14
2017-09-09T04:06:52.177Z,14
2017-09-09T04:07:54.577Z,14
2017-09-09T04:08:56.977Z,14
2017-09-09T04:09:59.361Z,14
2017-09-09T04:11:01.759Z,14
2017-09-09T04:12:04.164Z,14.1
2017-09-09T04:13:06.556Z,14.1
2017-09-09T04:14:08.952Z,14.1
2017-09-09T04:15:11.353Z,14.1
2017-09-09T04:16:13.744Z,14
2017-09-09T04:17:16.150Z,14
2017-09-09T04:18:18.545Z,14.1
2017-09-09T04:19:20.934Z,14.1
2017-09-09T04:20:23.326Z,14.1
2017-09-09T04:21:26.076Z,14.1
2017-09-09T04:22:28.473Z,14
2017-09-09T04:23:30.869Z,14
2017-09-09T04:24:33.252Z,14.1
2017-09-09T04:25:35.682Z,14.1
2017-09-09T04:26:38.059Z,14.1
2017-09-09T04:27:40.456Z,14.1
2017-09-09T04:28:43.197Z,14.1
2017-09-09T04:29:45.593Z,14.1
2017-09-09T04:30:48.351Z,14
2017-09-09T04:31:50.753Z,14
2017-09-09T04:32:53.150Z,14
2017-09-09T04:33:55.568Z,14
2017-09-09T04:34:57.956Z,14
2017-09-09T04:36:00.349Z,14
2017-09-09T04:37:02.746Z,14
2017-09-09T04:38:05.157Z,14
2017-09-09T04:39:07.555Z,14
2017-09-09T04:40:09.954Z,14
2017-09-09T04:41:12.346Z,14
2017-09-09T04:42:14.744Z,14
2017-09-09T04:43:17.139Z,14
2017-09-09T04:44:19.543Z,14
2017-09-09T04:45:21.931Z,13.9
2017-09-09T04:46:24.328Z,13.9
2017-09-09T04:47:26.726Z,13.9
2017-09-09T04:48:29.125Z,13.9
2017-09-09T04:49:31.513Z,13.9
2017-09-09T04:50:33.905Z,13.9
2017-09-09T04:51:36.296Z,13.9
2017-09-09T04:52:38.698Z,13.9
2017-09-09T04:53:41.093Z,13.9
2017-09-09T04:54:43.489Z,13.9
2017-09-09T04:55:45.881Z,13.9
2017-09-09T04:56:48.284Z,13.9
2017-09-09T04:57:50.681Z,13.9
2017-09-09T04:58:53.081Z,13.9
2017-09-09T04:59:55.809Z,13.9
2017-09-09T05:00:58.196Z,14
2017-09-09T05:02:00.590Z,14
2017-09-09T05:03:02.987Z,13.9
2017-09-09T05:04:05.390Z,13.9
2017-09-09T05:05:08.137Z,13.9
2017-09-09T05:06:10.535Z,13.9
2017-09-09T05:07:12.920Z,13.9
2017-09-09T05:08:15.329Z,13.9
2017-09-09T05:09:17.723Z,14
2017-09-09T05:10:20.125Z,14
2017-09-09T05:11:22.518Z,14
2017-09-09T05:12:25.257Z,14
2017-09-09T05:13:27.657Z,14
2017-09-09T05:14:30.054Z,14
2017-09-09T05:15:32.443Z,14
2017-09-09T05:16:34.837Z,14
2017-09-09T05:17:37.229Z,14
2017-09-09T05:18:39.623Z,14
2017-09-09T05:19:42.017Z,14
2017-09-09T05:20:44.409Z,14
2017-09-09T05:21:46.805Z,14
2017-09-09T05:22:49.211Z,14
2017-09-09T05:23:51.600Z,14
2017-09-09T05:24:54.004Z,14.1
2017-09-09T05:25:56.397Z,14
2017-09-09T05:26:58.794Z,14
2017-09-09T05:28:01.192Z,14
2017-09-09T05:29:03.590Z,14
2017-09-09T05:30:05.978Z,14.1
2017-09-09T05:31:08.381Z,14.1
2017-09-09T05:32:10.777Z,14.1
2017-09-09T05:33:13.184Z,14.1
2017-09-09T05:34:15.577Z,14.1
2017-09-09T05:35:17.967Z,14.1
2017-09-09T05:36:20.365Z,14.1
2017-09-09T05:37:22.760Z,14.1
2017-09-09T05:38:25.161Z,14.1
2017-09-09T05:39:27.555Z,14.1
2017-09-09T05:40:30.281Z,14.1
2017-09-09T05:41:33.025Z,14.1
2017-09-09T05:42:35.427Z,14.1
2017-09-09T05:43:37.827Z,14.1
2017-09-09T05:44:40.220Z,14.1
2017-09-09T05:45:42.613Z,14.1
2017-09-09T05:46:45.001Z,14.1
2017-09-09T05:47:47.404Z,14.1
2017-09-09T05:48:49.800Z,14.1
2017-09-09T05:49:52.193Z,14.1
2017-09-09T05:50:54.592Z,14.1
2017-09-09T05:51:56.988Z,14.1
2017-09-09T05:52:59.385Z,14.1
2017-09-09T05:54:01.785Z,14.1
2017-09-09T05:55:04.169Z,14.1
2017-09-09T05:56:06.559Z,14.1
2017-09-09T05:57:08.967Z,14.1
2017-09-09T05:58:11.698Z,14.1
2017-09-09T05:59:14.093Z,14.1
2017-09-09T06:00:16.491Z,14.1
2017-09-09T06:01:18.886Z,14.1
2017-09-09T06:02:21.283Z,14.1
2017-09-09T06:03:23.676Z,14.2
2017-09-09T06:04:26.068Z,14.2
2017-09-09T06:05:28.457Z,14.2
2017-09-09T06:06:30.857Z,14.2
2017-09-09T06:07:33.247Z,14.2
2017-09-09T06:08:35.651Z,14.2
2017-09-09T06:09:38.382Z,14.2
2017-09-09T06:10:40.780Z,14.1
2017-09-09T06:11:43.170Z,14.1
2017-09-09T06:12:45.566Z,14.1
2017-09-09T06:13:47.951Z,14.1
2017-09-09T06:14:50.356Z,14.1
2017-09-09T06:15:52.752Z,14.1
2017-09-09T06:16:55.148Z,14.1
2017-09-09T06:17:57.542Z,14.1
2017-09-09T06:18:59.938Z,14.1
2017-09-09T06:20:02.343Z,14.2
2017-09-09T06:21:04.749Z,14.1
2017-09-09T06:22:07.473Z,14.2
2017-09-09T06:23:09.870Z,14.1
2017-09-09T06:24:12.262Z,14.1
2017-09-09T06:25:14.656Z,14.1
2017-09-09T06:26:17.052Z,14.1
2017-09-09T06:27:19.451Z,14.1
2017-09-09T06:28:21.846Z,14.1
2017-09-09T06:29:24.247Z,14.1
2017-09-09T06:30:26.647Z,14.1
2017-09-09T06:31:29.038Z,14.1
2017-09-09T06:32:31.432Z,14.1
2017-09-09T06:33:33.832Z,14.1
2017-09-09T06:34:36.563Z,14.1
2017-09-09T06:35:38.958Z,14.1
2017-09-09T06:36:41.359Z,14.1
2017-09-09T06:37:43.751Z,14.1
2017-09-09T06:38:46.148Z,14.1
2017-09-09T06:39:48.558Z,14.1
2017-09-09T06:40:50.951Z,14.1
2017-09-09T06:41:53.348Z,14.1
2017-09-09T06:42:55.743Z,14.1
2017-09-09T06:43:58.134Z,14.1
2017-09-09T06:45:00.566Z,14.1
2017-09-09T06:46:02.949Z,14.1
2017-09-09T06:47:05.331Z,14.1
2017-09-09T06:48:07.741Z,14.1
2017-09-09T06:49:10.130Z,14.1
2017-09-09T06:50:12.521Z,14.1
2017-09-09T06:51:14.921Z,14.1
2017-09-09T06:52:17.312Z,14.1
2017-09-09T06:53:19.705Z,14.1
2017-09-09T06:54:22.107Z,14.1
2017-09-09T06:55:24.503Z,14.1
2017-09-09T06:56:26.897Z,14.1
2017-09-09T06:57:29.299Z,14.1
2017-09-09T06:58:31.694Z,14.1
2017-09-09T06:59:34.084Z,14.1
2017-09-09T07:00:36.478Z,14.1
2017-09-09T07:01:38.873Z,14.1
2017-09-09T07:02:41.272Z,14.1
2017-09-09T07:03:43.670Z,14.1
2017-09-09T07:04:46.068Z,14.1
2017-09-09T07:05:48.812Z,14.1
2017-09-09T07:06:51.204Z,14.2
2017-09-09T07:07:53.604Z,14.2
2017-09-09T07:08:56.007Z,14.2
2017-09-09T07:09:58.396Z,14.2
2017-09-09T07:11:00.791Z,14.2
2017-09-09T07:12:03.542Z,14.2
2017-09-09T07:13:05.925Z,14.2
2017-09-09T07:14:08.333Z,14.2
2017-09-09T07:15:10.726Z,14.2
2017-09-09T07:16:13.461Z,14.2
2017-09-09T07:17:16.206Z,14.2
2017-09-09T07:18:18.596Z,14.2
2017-09-09T07:19:20.994Z,14.2
2017-09-09T07:20:23.401Z,14.2
2017-09-09T07:21:25.791Z,14.2
2017-09-09T07:22:28.194Z,14.2
2017-09-09T07:23:30.597Z,14.3
2017-09-09T07:24:32.985Z,14.3
2017-09-09T07:25:35.384Z,14.2
2017-09-09T07:26:37.785Z,14.2
2017-09-09T07:27:40.169Z,14.2
2017-09-09T07:28:42.560Z,14.2
2017-09-09T07:29:45.301Z,14.3
2017-09-09T07:30:47.694Z,14.3
2017-09-09T07:31:50.089Z,14.3
2017-09-09T07:32:52.487Z,14.3
2017-09-09T07:33:54.887Z,14.3
2017-09-09T07:34:57.284Z,14.3
2017-09-09T07:35:59.684Z,14.3
2017-09-09T07:37:02.080Z,14.3
2017-09-09T07:38:04.485Z,14.3
2017-09-09T07:39:06.886Z,14.3
2017-09-09T07:40:09.286Z,14.3
2017-09-09T07:41:11.677Z,14.3
2017-09-09T07:42:14.069Z,14.3
2017-09-09T07:43:16.463Z,14.3
2017-09-09T07:44:18.873Z,14.3
2017-09-09T07:45:21.259Z,14.3
2017-09-09T07:46:23.809Z,14.3
2017-09-09T07:47:26.199Z,14.3
2017-09-09T07:48:28.598Z,14.3
2017-09-09T07:49:31.337Z,14.3
2017-09-09T07:50:33.734Z,14.3
2017-09-09T07:51:36.132Z,14.3
2017-09-09T07:52:38.534Z,14.3
2017-09-09T07:53:40.930Z,14.3
2017-09-09T07:54:43.329Z,14.3
2017-09-09T07:55:46.059Z,14.3
2017-09-09T07:56:48.452Z,14.3
2017-09-09T07:57:50.852Z,14.2
2017-09-09T07:58:53.249Z,14.3
2017-09-09T07:59:55.642Z,14.3
2017-09-09T08:00:58.029Z,14.3
2017-09-09T08:02:00.433Z,14.3
2017-09-09T08:03:02.834Z,14.3
2017-09-09T08:04:05.235Z,14.3
2017-09-09T08:05:07.626Z,14.3
2017-09-09T08:06:10.021Z,14.3
2017-09-09T08:07:12.414Z,14.3
2017-09-09T08:08:14.814Z,14.3
2017-09-09T08:09:17.205Z,14.3
2017-09-09T08:10:19.601Z,14.3
2017-09-09T08:11:22.338Z,14.3
2017-09-09T08:12:24.736Z,14.3
2017-09-09T08:13:27.129Z,14.3
2017-09-09T08:14:29.528Z,14.3
2017-09-09T08:15:32.255Z,14.3
2017-09-09T08:16:34.657Z,14.3
2017-09-09T08:17:37.057Z,14.3
2017-09-09T08:18:39.458Z,14.2
2017-09-09T08:19:41.847Z,14.2
2017-09-09T08:20:44.244Z,14.2
2017-09-09T08:21:46.635Z,14.3
2017-09-09T08:22:49.032Z,14.3
2017-09-09T08:23:51.431Z,14.2
2017-09-09T08:24:53.829Z,14.2
2017-09-09T08:25:56.219Z,14.2
2017-09-09T08:26:58.626Z,14.3
2017-09-09T08:28:02.059Z,14.3
2017-09-09T08:29:04.457Z,14.3
2017-09-09T08:30:06.856Z,14.3
2017-09-09T08:31:09.589Z,14.3
2017-09-09T08:32:11.982Z,14.3
2017-09-09T08:33:14.386Z,14.3
2017-09-09T08:34:16.790Z,14.3
2017-09-09T08:35:19.182Z,14.3
2017-09-09T08:36:21.923Z,14.3
2017-09-09T08:37:24.655Z,14.3
2017-09-09T08:38:27.043Z,14.2
2017-09-09T08:39:29.445Z,14.2
2017-09-09T08:40:31.833Z,14.2
2017-09-09T08:41:34.233Z,14.2
2017-09-09T08:42:36.630Z,14.2
2017-09-09T08:43:39.693Z,14.2
2017-09-09T08:44:42.094Z,14.2
2017-09-09T08:45:44.498Z,14.2
2017-09-09T08:46:46.895Z,14.2
2017-09-09T08:47:49.294Z,14.2
2017-09-09T08:48:51.691Z,14.2
2017-09-09T08:49:54.088Z,14.2
2017-09-09T08:50:56.481Z,14.2
2017-09-09T08:51:58.875Z,14.2
2017-09-09T08:53:01.259Z,14.1
2017-09-09T08:54:03.660Z,14.1
2017-09-09T08:55:06.061Z,14.1
2017-09-09T08:56:08.457Z,14.1
2017-09-09T08:57:10.854Z,14.1
2017-09-09T08:58:13.254Z,14.1
2017-09-09T08:59:15.653Z,14.1
2017-09-09T09:00:18.035Z,14.1
2017-09-09T09:01:20.437Z,14.1
2017-09-09T09:02:22.832Z,14.2
2017-09-09T09:03:25.607Z,14.2
2017-09-09T09:04:28.000Z,14.2
2017-09-09T09:05:30.491Z,14.2
2017-09-09T09:06:33.184Z,14.2
2017-09-09T09:07:35.588Z,14.2
2017-09-09T09:08:37.983Z,14.1
2017-09-09T09:09:40.374Z,14.1
2017-09-09T09:10:42.774Z,14.1
2017-09-09T09:11:45.511Z,14.1
2017-09-09T09:12:47.907Z,14.1
2017-09-09T09:13:50.310Z,14.1
2017-09-09T09:14:52.719Z,14.1
2017-09-09T09:15:55.145Z,14.1
2017-09-09T09:16:57.538Z,14.1
2017-09-09T09:17:59.931Z,14.1
2017-09-09T09:19:02.663Z,14.1
2017-09-09T09:20:05.061Z,14.2
2017-09-09T09:21:07.452Z,14.2
2017-09-09T09:22:09.852Z,14.1
2017-09-09T09:23:12.273Z,14.1
2017-09-09T09:24:14.676Z,14.1
2017-09-09T09:25:17.079Z,14.1
2017-09-09T09:26:19.489Z,14.1
2017-09-09T09:27:21.879Z,14.1
2017-09-09T09:28:24.275Z,14.1
2017-09-09T09:29:26.668Z,14.1
2017-09-09T09:30:29.068Z,14.2
2017-09-09T09:31:32.018Z,14.1
2017-09-09T09:32:34.760Z,14.1
2017-09-09T09:33:37.732Z,14.1
2017-09-09T09:34:40.151Z,14.1
2017-09-09T09:35:43.670Z,14.2
2017-09-09T09:36:46.067Z,14.2
2017-09-09T09:37:49.245Z,14.1
2017-09-09T09:38:52.605Z,14.2
2017-09-09T09:39:55.930Z,14.2
2017-09-09T09:40:59.120Z,14.2
2017-09-09T09:42:01.524Z,14.2
2017-09-09T09:43:04.915Z,14.2
2017-09-09T09:44:08.460Z,14.2
2017-09-09T09:45:11.180Z,14.2
2017-09-09T09:46:13.574Z,14.2
2017-09-09T09:47:15.965Z,14.1
2017-09-09T09:48:18.696Z,14.2
2017-09-09T09:49:21.097Z,14.2
2017-09-09T09:50:23.836Z,14.2
2017-09-09T09:51:26.231Z,14.2
2017-09-09T09:52:28.622Z,14.2
2017-09-09T09:53:31.016Z,14.2
2017-09-09T09:54:33.417Z,14.1
2017-09-09T09:55:35.815Z,14.1
2017-09-09T09:56:38.545Z,14.1
2017-09-09T09:57:40.933Z,14.1
2017-09-09T09:58:43.327Z,14.1
2017-09-09T09:59:45.732Z,14.1
2017-09-09T10:00:48.125Z,14.1
2017-09-09T10:01:50.516Z,14.1
2017-09-09T10:02:52.912Z,14.1
2017-09-09T10:03:55.304Z,14.1
2017-09-09T10:04:57.711Z,14.1
2017-09-09T10:06:00.110Z,14.1
2017-09-09T10:07:02.496Z,14.1
2017-09-09T10:08:04.890Z,14.1
2017-09-09T10:09:07.284Z,14.1
2017-09-09T10:10:09.682Z,14.1
2017-09-09T10:11:12.085Z,14.1
2017-09-09T10:12:14.823Z,14.1
2017-09-09T10:13:17.214Z,14.1
2017-09-09T10:14:19.609Z,14.1
2017-09-09T10:15:22.001Z,14.1
2017-09-09T10:16:24.395Z,14.1
2017-09-09T10:17:26.796Z,14.1
2017-09-09T10:18:29.192Z,14.1
2017-09-09T10:19:31.587Z,14.1
2017-09-09T10:20:33.987Z,14.2
2017-09-09T10:21:36.384Z,14.1
2017-09-09T10:22:38.778Z,14.1
2017-09-09T10:23:41.176Z,14.2
2017-09-09T10:24:43.559Z,14.2
2017-09-09T10:25:45.960Z,14.2
2017-09-09T10:26:48.350Z,14.2
2017-09-09T10:27:50.753Z,14.2
2017-09-09T10:28:53.477Z,14.2
2017-09-09T10:29:55.874Z,14.2
2017-09-09T10:30:58.264Z,14.2
2017-09-09T10:32:00.656Z,14.2
2017-09-09T10:33:03.047Z,14.2
2017-09-09T10:34:05.448Z,14.2
2017-09-09T10:35:07.846Z,14.2
2017-09-09T10:36:10.238Z,14.2
2017-09-09T10:37:12.636Z,14.2
2017-09-09T10:38:15.026Z,14.2
2017-09-09T10:39:17.422Z,14.2
2017-09-09T10:40:19.831Z,14.2
2017-09-09T10:41:22.218Z,14.3
2017-09-09T10:42:24.630Z,14.2
2017-09-09T10:43:27.018Z,14.3
2017-09-09T10:44:29.409Z,14.3
2017-09-09T10:45:31.807Z,14.3
2017-09-09T10:46:34.308Z,14.3
2017-09-09T10:47:36.726Z,14.3
2017-09-09T10:48:39.442Z,14.4
2017-09-09T10:49:41.835Z,14.4
2017-09-09T10:50:44.225Z,14.4
2017-09-09T10:51:46.628Z,14.4
2017-09-09T10:52:49.020Z,14.5
2017-09-09T10:53:51.408Z,14.5
2017-09-09T10:54:53.801Z,14.6
2017-09-09T10:55:56.197Z,14.6
2017-09-09T10:56:58.584Z,14.6
2017-09-09T10:58:00.979Z,14.6
2017-09-09T10:59:03.381Z,14.6
2017-09-09T11:00:05.783Z,14.6
2017-09-09T11:01:08.172Z,14.6
2017-09-09T11:02:10.574Z,14.6
2017-09-09T11:03:12.968Z,14.7
2017-09-09T11:04:15.379Z,14.7
2017-09-09T11:05:17.765Z,14.7
2017-09-09T11:06:20.159Z,14.7
2017-09-09T11:07:22.552Z,14.7
2017-09-09T11:08:25.284Z,14.7
2017-09-09T11:09:27.685Z,14.7
2017-09-09T11:10:30.078Z,14.7
2017-09-09T11:11:32.474Z,14.7
2017-09-09T11:12:34.875Z,14.8
2017-09-09T11:13:37.271Z,14.8
2017-09-09T11:14:40.030Z,14.8
2017-09-09T11:15:42.415Z,14.8
2017-09-09T11:16:44.813Z,14.8
2017-09-09T11:17:47.213Z,14.8
2017-09-09T11:18:49.610Z,14.8
2017-09-09T11:19:52.003Z,14.8
2017-09-09T11:20:54.394Z,14.8
2017-09-09T11:21:56.787Z,14.8
2017-09-09T11:22:59.191Z,14.8
2017-09-09T11:24:01.586Z,14.8
2017-09-09T11:25:03.975Z,14.8
2017-09-09T11:26:06.370Z,14.8
2017-09-09T11:27:08.768Z,14.8
2017-09-09T11:28:11.160Z,14.8
2017-09-09T11:29:13.550Z,14.8
2017-09-09T11:30:15.956Z,14.8
2017-09-09T11:31:18.350Z,14.8
2017-09-09T11:32:20.742Z,14.8
2017-09-09T11:33:23.472Z,14.8
2017-09-09T11:34:25.875Z,14.9
2017-09-09T11:35:28.270Z,14.9
2017-09-09T11:36:31.005Z,14.9
2017-09-09T11:37:33.387Z,15
2017-09-09T11:38:35.790Z,15
2017-09-09T11:39:38.195Z,15
2017-09-09T11:40:40.589Z,15
2017-09-09T11:41:42.984Z,15.1
2017-09-09T11:42:45.383Z,15.1
2017-09-09T11:43:47.773Z,15.1
2017-09-09T11:44:50.166Z,15.1
2017-09-09T11:45:52.562Z,15.1
2017-09-09T11:46:54.951Z,15.1
2017-09-09T11:47:57.351Z,15.1
2017-09-09T11:48:59.748Z,15.1
2017-09-09T11:50:02.137Z,15.1
2017-09-09T11:51:04.534Z,15.1
2017-09-09T11:52:06.932Z,15.1
2017-09-09T11:53:09.331Z,15.2
2017-09-09T11:54:11.730Z,15.2
2017-09-09T11:55:14.826Z,15.3
2017-09-09T11:56:17.229Z,15.3
2017-09-09T11:57:19.627Z,15.4
2017-09-09T11:58:22.359Z,15.5
2017-09-09T11:59:24.757Z,15.6
2017-09-09T12:00:27.147Z,15.7
2017-09-09T12:01:29.545Z,15.7
2017-09-09T12:02:31.937Z,15.8
2017-09-09T12:03:34.343Z,15.8
2017-09-09T12:04:36.736Z,15.9
2017-09-09T12:05:39.127Z,16.1
2017-09-09T12:06:41.527Z,16.3
2017-09-09T12:07:43.930Z,16.3
2017-09-09T12:08:46.330Z,16.4
2017-09-09T12:09:48.728Z,16.4
2017-09-09T12:10:51.110Z,16.5
2017-09-09T12:11:53.512Z,16.4
2017-09-09T12:12:55.910Z,16.5
2017-09-09T12:13:58.313Z,16.4
2017-09-09T12:15:01.049Z,16.5
2017-09-09T12:16:03.442Z,16.6
2017-09-09T12:17:05.839Z,16.6
2017-09-09T12:18:08.243Z,16.6
2017-09-09T12:19:10.644Z,16.7
2017-09-09T12:20:13.383Z,16.6
2017-09-09T12:21:15.776Z,16.6
2017-09-09T12:22:18.175Z,16.6
2017-09-09T12:23:20.578Z,16.6
2017-09-09T12:24:22.972Z,16.6
2017-09-09T12:25:25.376Z,16.7
2017-09-09T12:26:27.772Z,16.7
2017-09-09T12:27:30.168Z,16.7
2017-09-09T12:28:32.568Z,16.7
2017-09-09T12:29:34.977Z,16.7
2017-09-09T12:30:37.376Z,16.7
2017-09-09T12:31:39.766Z,16.7
2017-09-09T12:32:42.170Z,16.8
2017-09-09T12:33:44.574Z,17
2017-09-09T12:34:46.969Z,17.1
2017-09-09T12:35:49.371Z,17
2017-09-09T12:36:52.096Z,17
2017-09-09T12:37:54.499Z,17
2017-09-09T12:38:56.912Z,17.1
2017-09-09T12:39:59.307Z,17.1
2017-09-09T12:41:01.704Z,17
2017-09-09T12:42:04.101Z,17
2017-09-09T12:43:06.508Z,17
2017-09-09T12:44:08.919Z,17
2017-09-09T12:45:11.311Z,17.1
2017-09-09T12:46:13.701Z,17.2
2017-09-09T12:47:16.104Z,17.4
2017-09-09T12:48:18.508Z,17.7
2017-09-09T12:49:20.911Z,18
2017-09-09T12:50:23.310Z,18.3
2017-09-09T12:51:25.704Z,18.4
2017-09-09T12:52:28.108Z,18.4
2017-09-09T12:53:30.523Z,18.3
2017-09-09T12:54:32.926Z,18.2
2017-09-09T12:55:35.319Z,18.1
2017-09-09T12:56:37.722Z,18.2
2017-09-09T12:57:40.123Z,18
2017-09-09T12:58:42.524Z,17.9
2017-09-09T12:59:44.929Z,17.7
2017-09-09T13:00:47.335Z,17.6
2017-09-09T13:01:49.735Z,17.5
2017-09-09T13:02:52.489Z,17.4
2017-09-09T13:03:54.885Z,17.2
2017-09-09T13:04:57.619Z,17.1
2017-09-09T13:06:00.019Z,17
2017-09-09T13:07:02.419Z,16.9
2017-09-09T13:08:04.829Z,16.8
2017-09-09T13:09:07.576Z,16.6
2017-09-09T13:10:09.968Z,16.8
2017-09-09T13:11:12.401Z,17
2017-09-09T13:12:14.803Z,17.3
2017-09-09T13:13:17.537Z,17.6
2017-09-09T13:14:19.939Z,17.8
2017-09-09T13:15:22.341Z,17.7
2017-09-09T13:16:24.733Z,17.8
2017-09-09T13:17:27.147Z,17.9
2017-09-09T13:18:29.548Z,18.1
2017-09-09T13:19:31.946Z,18.2
2017-09-09T13:20:34.353Z,18.2
2017-09-09T13:21:36.758Z,18
2017-09-09T13:22:39.164Z,17.9
2017-09-09T13:23:41.562Z,17.9
2017-09-09T13:24:43.963Z,18
2017-09-09T13:25:46.366Z,17.9
2017-09-09T13:26:48.767Z,17.9
2017-09-09T13:27:51.177Z,17.9
2017-09-09T13:28:53.579Z,17.7
2017-09-09T13:29:55.992Z,17.6
2017-09-09T13:30:58.398Z,17.5
2017-09-09T13:32:00.804Z,17.5
2017-09-09T13:33:03.202Z,17.5
2017-09-09T13:34:05.605Z,17.4
2017-09-09T13:35:08.342Z,17.3
2017-09-09T13:36:10.746Z,17.3
2017-09-09T13:37:13.148Z,17.3
2017-09-09T13:38:15.551Z,17.3
2017-09-09T13:39:17.951Z,17.3
2017-09-09T13:40:20.358Z,17.2
2017-09-09T13:41:22.750Z,17.2
2017-09-09T13:42:25.156Z,17.2
2017-09-09T13:43:27.560Z,17.2
2017-09-09T13:44:29.962Z,17.1
2017-09-09T13:45:32.370Z,17.1
2017-09-09T13:46:34.793Z,17.1
2017-09-09T13:47:37.235Z,17.2
2017-09-09T13:48:39.983Z,17.1
2017-09-09T13:49:42.387Z,17.3
2017-09-09T13:50:44.794Z,17.5
2017-09-09T13:51:47.192Z,17.8
2017-09-09T13:52:49.597Z,17.9
2017-09-09T13:53:51.991Z,17.9
2017-09-09T13:54:54.672Z,17.9
2017-09-09T13:55:57.080Z,18
2017-09-09T13:56:59.484Z,18.1
2017-09-09T13:58:01.887Z,18.1